Main page
METAR-TAF:

METAR-TAF

Airports :

Ålesund Airport. Vigra

Ålesund, Norway

latitude: 62-34N, longitude: 006-07E, elevation: 2 m

Current weather observation

The report was made 26 minutes ago, at 22:20 UTC
Wind 11 kt from the Southeast
Temperature 3°C
Humidity 60%
Pressure 1005 hPa
Visibility 10 km or more

METAR: ENAL 042220Z AUTO 13011KT 9999 SCT026/// OVC034/// 03/M04 Q1005

Time: 23:46 (22:46 UTC)

Forecast

The report was made 5 hours and 46 minutes ago, at 17:00 UTC
Forecast valid from 04 at 18 UTC to 04 at 22 UTC
Wind 10 kt from the Southeast
Visibility 10 km or more
Few clouds at a height of 1500 ft
Broken clouds at a height of 4000 ft
Probability 30% :
Temporary
from 04 at 18 UTC to 04 at 22 UTC
Visibility: 4000 m
light snow

TAF: ENAL 041700Z 0418/0422 13010KT 9999 FEW015 BKN040 PROB30 TEMPO 0418/0422 4000 -SN

Weather observations and forecasts of more than 4000 airports (METAR and TAF reports).

The available stations are represented by yellow and red dots on the map.

Hover mouse over dot to see the name of the station.

Then click to see weather observations and forecasts.

To change the map : click on the green buttons with a black cross to zoom in, on the green button with a dash to zoom out, or on the green arrows for adjacent maps.


METAR-TAF: